createdAt,value
2022-11-15T00:01:46.359Z,9.13
2022-11-15T00:03:53.029Z,8.95
2022-11-15T00:08:00.210Z,6.50
2022-11-15T00:10:02.883Z,7.95
2022-11-15T00:12:06.045Z,7.13
2022-11-15T00:14:08.819Z,9.55
2022-11-15T00:16:12.378Z,7.30
2022-11-15T00:18:17.200Z,9.80
2022-11-15T00:20:19.827Z,10.80
2022-11-15T00:22:22.523Z,7.35
2022-11-15T00:24:26.581Z,8.98
2022-11-15T00:26:29.174Z,10.30
2022-11-15T00:28:32.090Z,8.75
2022-11-15T00:30:35.630Z,8.27
2022-11-15T00:32:38.226Z,6.30
2022-11-15T00:34:40.862Z,6.63
2022-11-15T00:36:43.435Z,6.35
2022-11-15T00:38:46.016Z,7.47
2022-11-15T00:40:49.962Z,7.25
2022-11-15T00:42:52.592Z,5.97
2022-11-15T00:44:55.240Z,6.15
2022-11-15T00:46:57.846Z,8.13
2022-11-15T00:49:00.675Z,6.45
2022-11-15T00:51:03.600Z,5.32
2022-11-15T00:53:06.191Z,6.93
2022-11-15T00:55:10.145Z,5.72
2022-11-15T00:57:14.066Z,6.30
2022-11-15T00:59:16.702Z,5.25
2022-11-15T01:01:19.340Z,6.55
2022-11-15T01:03:22.043Z,7.00
2022-11-15T01:05:24.703Z,8.73
2022-11-15T01:07:27.378Z,5.80
2022-11-15T01:09:30.029Z,5.43
2022-11-15T01:11:32.700Z,5.63
2022-11-15T01:13:38.225Z,5.30
2022-11-15T01:15:42.238Z,5.78
2022-11-15T01:17:44.849Z,3.90
2022-11-15T01:19:47.528Z,5.07
2022-11-15T01:21:50.962Z,5.05
2022-11-15T01:23:55.044Z,5.65
2022-11-15T01:26:01.030Z,4.25
2022-11-15T01:28:03.632Z,10.32
2022-11-15T01:30:09.298Z,5.55
2022-11-15T01:32:11.950Z,6.93
2022-11-15T01:34:16.044Z,4.55
2022-11-15T01:36:23.052Z,6.60
2022-11-15T01:38:25.783Z,7.28
2022-11-15T01:40:28.365Z,5.50
2022-11-15T01:42:30.979Z,5.95
2022-11-15T01:44:42.309Z,6.60
2022-11-15T01:46:48.477Z,5.95
2022-11-15T01:48:53.499Z,4.97
2022-11-15T01:50:56.269Z,5.07
2022-11-15T01:52:58.957Z,6.15
2022-11-15T01:55:07.419Z,7.80
2022-11-15T01:57:12.518Z,6.10
2022-11-15T01:59:15.760Z,8.25
2022-11-15T02:01:18.377Z,6.13
2022-11-15T02:03:25.587Z,4.65
2022-11-15T02:05:28.270Z,5.10
2022-11-15T02:07:32.855Z,5.75
2022-11-15T02:09:37.430Z,5.60
2022-11-15T02:11:40.174Z,6.40
2022-11-15T02:13:43.359Z,6.63
2022-11-15T02:16:02.655Z,5.68
2022-11-15T02:18:17.590Z,5.35
2022-11-15T02:20:38.253Z,5.30
2022-11-15T02:22:52.929Z,6.35
2022-11-15T02:25:12.094Z,6.35
2022-11-15T02:27:40.013Z,7.28
2022-11-15T02:30:05.826Z,6.63
2022-11-15T02:32:16.167Z,5.72
2022-11-15T02:34:28.342Z,6.00
2022-11-15T02:36:41.411Z,5.72
2022-11-15T02:38:51.244Z,7.05
2022-11-15T02:40:58.842Z,6.55
2022-11-15T02:43:25.881Z,8.20
2022-11-15T02:45:32.648Z,6.15
2022-11-15T02:49:47.079Z,6.68
2022-11-15T02:51:52.869Z,5.15
2022-11-15T02:53:55.501Z,6.55
2022-11-15T02:55:58.982Z,5.40
2022-11-15T02:58:18.280Z,9.05
2022-11-15T03:00:22.193Z,6.82
2022-11-15T03:02:42.872Z,5.72
2022-11-15T03:04:52.597Z,5.35
2022-11-15T03:07:09.723Z,6.30
2022-11-15T03:09:20.311Z,8.23
2022-11-15T03:11:25.187Z,5.97
2022-11-15T03:13:30.161Z,5.35
2022-11-15T03:15:38.936Z,4.85
2022-11-15T03:17:49.750Z,4.40
2022-11-15T03:19:56.124Z,6.63
2022-11-15T03:22:02.096Z,7.00
2022-11-15T03:24:07.719Z,4.65
2022-11-15T03:26:13.993Z,5.47
2022-11-15T03:28:21.791Z,5.95
2022-11-15T03:30:24.402Z,6.25
2022-11-15T03:32:30.952Z,5.68
2022-11-15T03:34:39.995Z,5.65
2022-11-15T03:36:43.140Z,4.43
2022-11-15T03:38:47.182Z,4.70
2022-11-15T03:40:56.270Z,7.88
2022-11-15T03:43:04.310Z,5.45
2022-11-15T03:45:15.341Z,5.78
2022-11-15T03:47:22.979Z,5.38
2022-11-15T03:49:29.955Z,6.25
2022-11-15T03:51:34.159Z,6.72
2022-11-15T03:53:36.770Z,6.40
2022-11-15T03:55:39.379Z,6.53
2022-11-15T03:57:42.054Z,6.15
2022-11-15T03:59:44.725Z,9.65
2022-11-15T04:01:47.616Z,5.32
2022-11-15T04:03:50.287Z,6.00
2022-11-15T04:05:52.895Z,5.80
2022-11-15T04:07:56.949Z,5.82
2022-11-15T04:10:06.434Z,8.90
2022-11-15T04:12:09.091Z,5.25
2022-11-15T04:14:11.730Z,6.53
2022-11-15T04:16:14.379Z,5.05
2022-11-15T04:18:16.957Z,5.68
2022-11-15T04:20:39.255Z,5.10
2022-11-15T04:22:59.691Z,5.35
2022-11-15T04:25:03.751Z,5.93
2022-11-15T04:27:06.389Z,7.30
2022-11-15T04:29:26.632Z,7.88
2022-11-15T04:31:29.711Z,5.28
2022-11-15T04:33:32.651Z,6.05
2022-11-15T04:35:35.694Z,5.65
2022-11-15T04:37:37.321Z,6.10
2022-11-15T04:39:40.035Z,6.93
2022-11-15T04:41:44.026Z,9.23
2022-11-15T04:43:46.606Z,6.53
2022-11-15T04:45:53.789Z,5.97
2022-11-15T04:47:56.416Z,7.07
2022-11-15T04:49:59.052Z,7.75
2022-11-15T04:52:01.698Z,6.38
2022-11-15T04:54:04.534Z,6.32
2022-11-15T04:56:07.529Z,5.75
2022-11-15T04:58:12.198Z,7.80
2022-11-15T05:00:17.411Z,7.60
2022-11-15T05:02:20.011Z,7.10
2022-11-15T05:04:21.644Z,7.60
2022-11-15T05:06:24.260Z,8.55
2022-11-15T05:08:26.923Z,8.55
2022-11-15T05:10:29.572Z,6.38
2022-11-15T05:12:32.610Z,6.82
2022-11-15T05:14:36.559Z,6.47
2022-11-15T05:16:39.611Z,8.40
2022-11-15T05:18:42.302Z,6.97
2022-11-15T05:20:44.928Z,6.50
2022-11-15T05:22:47.500Z,5.90
2022-11-15T05:24:50.279Z,5.15
2022-11-15T05:26:52.892Z,6.82
2022-11-15T05:28:56.446Z,8.45
2022-11-15T05:31:03.603Z,5.85
2022-11-15T05:33:06.614Z,6.18
2022-11-15T05:35:14.062Z,4.97
2022-11-15T05:37:17.724Z,5.90
2022-11-15T05:39:20.316Z,5.28
2022-11-15T05:41:36.168Z,5.72
2022-11-15T05:43:41.046Z,7.88
2022-11-15T05:45:43.667Z,7.82
2022-11-15T05:47:49.673Z,7.05
2022-11-15T05:49:54.720Z,5.88
2022-11-15T05:51:58.650Z,8.77
2022-11-15T05:54:03.011Z,7.85
2022-11-15T05:56:07.547Z,6.07
2022-11-15T05:58:10.315Z,8.77
2022-11-15T06:00:14.224Z,9.13
2022-11-15T06:02:16.931Z,8.02
2022-11-15T06:04:20.919Z,8.57
2022-11-15T06:06:23.680Z,8.10
2022-11-15T06:08:26.287Z,9.02
2022-11-15T06:10:28.908Z,7.05
2022-11-15T06:12:31.550Z,8.23
2022-11-15T06:14:34.183Z,8.82
2022-11-15T06:16:36.863Z,8.60
2022-11-15T06:18:39.692Z,8.65
2022-11-15T06:20:43.758Z,7.90
2022-11-15T06:22:46.349Z,8.10
2022-11-15T06:24:49.012Z,8.07
2022-11-15T06:26:51.636Z,9.10
2022-11-15T06:28:54.341Z,12.18
2022-11-15T06:30:57.031Z,8.82
2022-11-15T06:33:03.735Z,7.15
2022-11-15T06:37:10.768Z,10.02
2022-11-15T06:39:13.571Z,8.40
2022-11-15T06:41:17.776Z,7.70
2022-11-15T06:43:20.411Z,7.95
2022-11-15T06:45:22.990Z,7.53
2022-11-15T06:47:25.590Z,9.35
2022-11-15T06:49:28.247Z,8.13
2022-11-15T06:51:30.874Z,6.30
2022-11-15T06:53:35.204Z,11.75
2022-11-15T06:55:38.017Z,8.73
2022-11-15T06:57:48.704Z,8.65
2022-11-15T06:59:51.323Z,9.55
2022-11-15T07:01:53.963Z,9.05
2022-11-15T07:03:56.620Z,9.90
2022-11-15T07:06:05.722Z,9.07
2022-11-15T07:08:10.533Z,8.23
2022-11-15T07:10:14.482Z,11.77
2022-11-15T07:12:17.074Z,9.50
2022-11-15T07:14:19.666Z,9.30
2022-11-15T07:16:22.352Z,10.65
2022-11-15T07:18:24.981Z,11.30
2022-11-15T07:20:27.634Z,8.65
2022-11-15T07:22:30.267Z,7.97
2022-11-15T07:24:32.891Z,8.35
2022-11-15T07:26:36.866Z,6.60
2022-11-15T07:28:39.489Z,7.28
2022-11-15T07:30:45.214Z,6.95
2022-11-15T07:32:48.509Z,7.45
2022-11-15T07:34:51.194Z,6.60
2022-11-15T07:36:53.861Z,6.57
2022-11-15T07:38:56.769Z,9.02
2022-11-15T07:41:00.641Z,8.02
2022-11-15T07:43:06.963Z,5.95
2022-11-15T07:45:10.419Z,5.68
2022-11-15T07:47:13.019Z,6.43
2022-11-15T07:49:15.667Z,6.93
2022-11-15T07:51:18.721Z,6.65
2022-11-15T07:53:21.330Z,5.85
2022-11-15T07:55:24.352Z,8.07
2022-11-15T07:57:27.154Z,5.75
2022-11-15T07:59:31.167Z,6.35
2022-11-15T08:01:33.915Z,5.00
2022-11-15T08:03:37.349Z,5.78
2022-11-15T08:05:41.296Z,8.07
2022-11-15T08:07:43.960Z,6.38
2022-11-15T08:09:46.603Z,7.97
2022-11-15T08:11:49.292Z,6.32
2022-11-15T08:13:52.499Z,6.00
2022-11-15T08:16:01.413Z,6.03
2022-11-15T08:18:05.968Z,5.88
2022-11-15T08:20:09.842Z,5.03
2022-11-15T08:22:12.456Z,6.97
2022-11-15T08:24:15.339Z,5.82
2022-11-15T08:26:18.010Z,5.65
2022-11-15T08:28:20.655Z,7.00
2022-11-15T08:30:23.948Z,6.50
2022-11-15T08:32:27.944Z,6.70
2022-11-15T08:34:30.657Z,5.18
2022-11-15T08:36:43.071Z,6.80
2022-11-15T08:38:48.468Z,6.30
2022-11-15T08:40:53.114Z,6.30
2022-11-15T08:42:55.864Z,6.35
2022-11-15T08:44:58.686Z,7.07
2022-11-15T08:47:01.345Z,8.63
2022-11-15T08:49:05.430Z,6.68
2022-11-15T08:51:08.095Z,6.65
2022-11-15T08:53:10.837Z,6.80
2022-11-15T08:55:13.555Z,7.65
2022-11-15T08:57:16.886Z,4.63
2022-11-15T08:59:19.576Z,5.97
2022-11-15T09:01:22.825Z,5.38
2022-11-15T09:03:25.501Z,5.78
2022-11-15T09:05:29.496Z,4.57
2022-11-15T09:07:32.770Z,6.30
2022-11-15T09:09:35.483Z,5.57
2022-11-15T09:11:38.454Z,7.65
2022-11-15T09:13:41.133Z,6.18
2022-11-15T09:15:44.104Z,5.80
2022-11-15T09:17:46.731Z,7.32
2022-11-15T09:19:49.367Z,6.75
2022-11-15T09:21:53.456Z,6.28
2022-11-15T09:23:56.152Z,5.60
2022-11-15T09:26:03.687Z,5.78
2022-11-15T09:28:08.451Z,6.78
2022-11-15T09:30:12.096Z,6.63
2022-11-15T09:32:14.760Z,6.43
2022-11-15T09:34:17.597Z,5.45
2022-11-15T09:36:20.275Z,4.72
2022-11-15T09:38:24.260Z,5.22
2022-11-15T09:40:27.263Z,5.00
2022-11-15T09:42:50.056Z,6.47
2022-11-15T09:45:05.751Z,4.50
2022-11-15T09:47:24.349Z,7.05
2022-11-15T09:49:27.294Z,5.20
2022-11-15T09:51:34.199Z,6.65
2022-11-15T09:56:17.663Z,7.82
2022-11-15T09:58:29.268Z,6.93
2022-11-15T10:00:52.891Z,7.13
2022-11-15T10:03:09.981Z,8.70
2022-11-15T10:05:16.593Z,5.65
2022-11-15T10:09:30.721Z,6.22
2022-11-15T10:11:38.969Z,6.82
2022-11-15T10:13:45.291Z,6.07
2022-11-15T10:15:49.706Z,5.78
2022-11-15T10:18:10.743Z,6.75
2022-11-15T10:20:21.613Z,7.07
2022-11-15T10:22:29.025Z,7.30
2022-11-15T10:24:39.640Z,6.72
2022-11-15T10:26:48.827Z,4.93
2022-11-15T10:28:51.450Z,12.50
2022-11-15T10:30:56.011Z,7.72
2022-11-15T10:32:58.669Z,6.75
2022-11-15T10:35:01.289Z,5.18
2022-11-15T10:37:04.032Z,5.72
2022-11-15T10:39:06.957Z,6.50
2022-11-15T10:41:13.617Z,7.63
2022-11-15T10:43:19.731Z,8.07
2022-11-15T10:45:27.913Z,7.18
2022-11-15T10:47:38.857Z,6.70
2022-11-15T10:49:55.834Z,9.68
2022-11-15T10:52:02.693Z,5.55
2022-11-15T10:54:13.017Z,6.00
2022-11-15T10:56:24.247Z,5.13
2022-11-15T10:58:35.350Z,7.45
2022-11-15T11:00:40.566Z,7.30
2022-11-15T11:03:00.624Z,7.05
2022-11-15T11:05:05.100Z,7.07
2022-11-15T11:07:22.896Z,5.93
2022-11-15T11:09:33.637Z,6.13
2022-11-15T11:11:49.169Z,6.28
2022-11-15T11:13:51.942Z,6.18
2022-11-15T11:16:02.111Z,5.93
2022-11-15T11:18:10.788Z,7.03
2022-11-15T11:20:22.692Z,6.57
2022-11-15T11:22:33.140Z,8.55
2022-11-15T11:24:40.982Z,7.43
2022-11-15T11:27:09.474Z,9.55
2022-11-15T11:29:28.270Z,8.38
2022-11-15T11:31:37.610Z,8.77
2022-11-15T11:33:46.729Z,7.90
2022-11-15T11:35:57.171Z,8.75
2022-11-15T11:38:17.092Z,8.82
2022-11-15T11:40:30.922Z,9.23
2022-11-15T11:42:43.630Z,8.85
2022-11-15T11:44:57.163Z,8.00
2022-11-15T11:47:02.579Z,8.85
2022-11-15T11:49:10.644Z,8.82
2022-11-15T11:51:20.549Z,6.60
2022-11-15T11:53:29.761Z,6.43
2022-11-15T11:55:38.875Z,7.45
2022-11-15T11:57:48.697Z,7.38
2022-11-15T11:59:57.778Z,9.45
2022-11-15T12:02:10.674Z,6.60
2022-11-15T12:04:18.182Z,7.38
2022-11-15T12:06:30.184Z,7.20
2022-11-15T12:08:43.264Z,8.23
2022-11-15T12:10:50.860Z,8.70
2022-11-15T12:13:03.284Z,9.60
2022-11-15T12:15:16.111Z,7.13
2022-11-15T12:17:27.367Z,9.10
2022-11-15T12:19:31.218Z,6.70
2022-11-15T12:21:41.531Z,10.43
2022-11-15T12:23:50.227Z,7.03
2022-11-15T12:25:57.834Z,6.65
2022-11-15T12:28:08.987Z,7.88
2022-11-15T12:30:15.166Z,9.02
2022-11-15T12:32:28.153Z,6.35
2022-11-15T12:34:40.191Z,7.93
2022-11-15T12:36:46.079Z,5.70
2022-11-15T12:38:59.618Z,7.63
2022-11-15T12:41:16.551Z,7.20
2022-11-15T12:43:43.219Z,7.85
2022-11-15T12:45:47.997Z,7.53
2022-11-15T12:47:50.622Z,8.88
2022-11-15T12:49:53.742Z,6.15
2022-11-15T12:52:08.203Z,7.00
2022-11-15T12:54:48.423Z,6.63
2022-11-15T12:57:28.060Z,6.80
2022-11-15T12:59:52.878Z,6.57
2022-11-15T13:02:02.165Z,7.40
2022-11-15T13:04:16.779Z,6.00
2022-11-15T13:06:40.092Z,9.63
2022-11-15T13:08:48.399Z,7.97
2022-11-15T13:10:51.780Z,7.72
2022-11-15T13:12:57.713Z,8.20
2022-11-15T13:15:00.943Z,11.30
2022-11-15T13:17:14.621Z,7.43
2022-11-15T13:19:17.260Z,8.23
2022-11-15T13:21:42.749Z,8.18
2022-11-15T13:23:47.366Z,10.20
2022-11-15T13:26:17.417Z,7.97
2022-11-15T13:28:26.248Z,8.57
2022-11-15T13:30:31.445Z,8.32
2022-11-15T13:32:35.486Z,6.40
2022-11-15T13:34:54.715Z,7.53
2022-11-15T13:36:58.124Z,7.32
2022-11-15T13:39:03.584Z,7.90
2022-11-15T13:41:19.456Z,9.98
2022-11-15T13:43:30.663Z,8.30
2022-11-15T13:45:33.391Z,9.70
2022-11-15T13:47:37.338Z,6.78
2022-11-15T13:49:40.128Z,7.15
2022-11-15T13:51:46.439Z,6.82
2022-11-15T13:53:53.465Z,9.32
2022-11-15T13:55:58.152Z,6.93
2022-11-15T13:58:06.775Z,7.90
2022-11-15T14:00:28.654Z,9.20
2022-11-15T14:02:34.247Z,8.35
2022-11-15T14:04:40.486Z,9.70
2022-11-15T14:06:48.876Z,10.50
2022-11-15T14:09:05.892Z,9.20
2022-11-15T14:11:11.700Z,9.63
2022-11-15T14:13:29.826Z,9.25
2022-11-15T14:15:34.862Z,10.05
2022-11-15T14:17:45.754Z,9.05
2022-11-15T14:19:52.068Z,7.38
2022-11-15T14:22:12.169Z,9.00
2022-11-15T14:24:18.601Z,9.75
2022-11-15T14:26:32.101Z,7.70
2022-11-15T14:28:39.035Z,8.93
2022-11-15T14:30:42.498Z,7.18
2022-11-15T14:32:48.262Z,11.32
2022-11-15T14:34:56.864Z,8.52
2022-11-15T14:36:59.567Z,11.90
2022-11-15T14:39:02.915Z,10.05
2022-11-15T14:41:06.656Z,8.40
2022-11-15T14:43:10.606Z,8.73
2022-11-15T14:45:15.714Z,8.15
2022-11-15T14:47:18.796Z,7.32
2022-11-15T14:49:21.400Z,7.60
2022-11-15T14:51:25.515Z,9.80
2022-11-15T14:53:28.126Z,7.93
2022-11-15T14:55:35.201Z,9.80
2022-11-15T14:57:37.866Z,6.60
2022-11-15T14:59:40.489Z,7.30
2022-11-15T15:01:43.276Z,8.60
2022-11-15T15:03:46.352Z,7.35
2022-11-15T15:05:49.080Z,10.95
2022-11-15T15:07:54.042Z,9.95
2022-11-15T15:10:17.744Z,9.82
2022-11-15T15:12:21.805Z,8.10
2022-11-15T15:14:24.403Z,10.02
2022-11-15T15:16:27.063Z,10.52
2022-11-15T15:18:29.943Z,8.15
2022-11-15T15:20:33.638Z,9.60
2022-11-15T15:22:36.417Z,9.05
2022-11-15T15:24:40.390Z,11.10
2022-11-15T15:26:44.378Z,9.55
2022-11-15T15:28:47.109Z,8.48
2022-11-15T15:30:50.393Z,10.95
2022-11-15T15:32:54.790Z,8.35
2022-11-15T15:34:57.536Z,10.30
2022-11-15T15:37:11.142Z,9.05
2022-11-15T15:39:13.752Z,9.00
2022-11-15T15:41:18.662Z,10.57
2022-11-15T15:43:21.368Z,7.90
2022-11-15T15:45:24.164Z,12.68
2022-11-15T15:47:27.699Z,10.93
2022-11-15T15:49:30.333Z,9.50
2022-11-15T15:51:32.962Z,10.50
2022-11-15T15:53:35.648Z,9.77
2022-11-15T15:55:38.760Z,13.23
2022-11-15T15:57:42.759Z,10.32
2022-11-15T15:59:45.372Z,12.00
2022-11-15T16:01:48.055Z,11.93
2022-11-15T16:03:50.741Z,9.88
2022-11-15T16:05:53.386Z,11.25
2022-11-15T16:07:56.046Z,11.85
2022-11-15T16:10:01.804Z,9.95
2022-11-15T16:12:04.703Z,10.93
2022-11-15T16:14:09.355Z,11.77
2022-11-15T16:16:15.043Z,9.70
2022-11-15T16:18:18.968Z,10.25
2022-11-15T16:20:37.113Z,10.95
2022-11-15T16:22:39.778Z,10.43
2022-11-15T16:24:42.450Z,12.20
2022-11-15T16:26:45.247Z,11.55
2022-11-15T16:28:47.882Z,10.48
2022-11-15T16:31:01.221Z,11.30
2022-11-15T16:33:03.839Z,8.98
2022-11-15T16:35:07.044Z,13.13
2022-11-15T16:37:22.326Z,10.75
2022-11-15T16:39:24.965Z,10.88
2022-11-15T16:41:27.995Z,10.95
2022-11-15T16:43:30.648Z,11.90
2022-11-15T16:45:36.117Z,9.07
2022-11-15T16:47:40.127Z,10.88
2022-11-15T16:49:45.138Z,13.13
2022-11-15T16:51:48.820Z,10.27
2022-11-15T16:53:51.582Z,12.98
2022-11-15T16:55:55.590Z,11.05
2022-11-15T16:57:58.976Z,11.05
2022-11-15T17:00:01.645Z,11.10
2022-11-15T17:02:04.331Z,10.07
2022-11-15T17:04:12.706Z,9.98
2022-11-15T17:06:18.275Z,13.50
2022-11-15T17:08:21.985Z,9.05
2022-11-15T17:10:27.324Z,12.02
2022-11-15T17:12:30.917Z,11.52
2022-11-15T17:14:33.515Z,9.75
2022-11-15T17:16:38.122Z,9.80
2022-11-15T17:18:42.256Z,9.05
2022-11-15T17:20:46.255Z,10.55
2022-11-15T17:22:48.927Z,10.40
2022-11-15T17:24:51.605Z,11.50
2022-11-15T17:26:54.215Z,12.85
2022-11-15T17:28:57.422Z,11.20
2022-11-15T17:31:00.400Z,10.38
2022-11-15T17:33:03.023Z,10.88
2022-11-15T17:35:12.064Z,12.80
2022-11-15T17:37:17.897Z,12.27
2022-11-15T17:39:20.849Z,15.38
2022-11-15T17:41:23.448Z,9.88
2022-11-15T17:43:26.116Z,12.43
2022-11-15T17:45:28.770Z,11.07
2022-11-15T17:47:31.397Z,12.02
2022-11-15T17:49:34.983Z,16.08
2022-11-15T17:51:37.706Z,12.73
2022-11-15T17:53:43.952Z,13.57
2022-11-15T17:55:46.553Z,9.93
2022-11-15T17:57:49.166Z,16.08
2022-11-15T17:59:51.817Z,11.68
2022-11-15T18:01:54.779Z,11.55
2022-11-15T18:04:00.381Z,10.18
2022-11-15T18:06:03.103Z,11.35
2022-11-15T18:08:08.319Z,11.45
2022-11-15T18:10:15.410Z,11.25
2022-11-15T18:12:18.495Z,11.82
2022-11-15T18:14:21.393Z,13.23
2022-11-15T18:16:26.121Z,12.95
2022-11-15T18:18:28.820Z,11.30
2022-11-15T18:20:31.421Z,14.05
2022-11-15T18:22:34.581Z,12.60
2022-11-15T18:24:39.263Z,13.07
2022-11-15T18:26:43.322Z,14.13
2022-11-15T18:28:48.302Z,10.05
2022-11-15T18:30:50.953Z,14.32
2022-11-15T18:32:55.078Z,15.73
2022-11-15T18:34:57.678Z,10.40
2022-11-15T18:37:00.856Z,13.95
2022-11-15T18:39:05.462Z,10.55
2022-11-15T18:41:09.989Z,14.20
2022-11-15T18:43:13.966Z,10.40
2022-11-15T18:45:21.470Z,11.10
2022-11-15T18:47:26.493Z,10.63
2022-11-15T18:49:29.306Z,10.18
2022-11-15T18:51:32.830Z,11.10
2022-11-15T18:53:36.506Z,10.43
2022-11-15T18:55:39.311Z,8.30
2022-11-15T18:57:41.956Z,10.65
2022-11-15T18:59:45.975Z,9.88
2022-11-15T19:01:48.721Z,11.63
2022-11-15T19:03:53.771Z,11.60
2022-11-15T19:06:02.569Z,11.20
2022-11-15T19:08:05.585Z,9.02
2022-11-15T19:10:10.941Z,11.45
2022-11-15T19:12:13.892Z,10.60
2022-11-15T19:14:18.242Z,9.88
2022-11-15T19:16:22.314Z,9.73
2022-11-15T19:18:24.908Z,12.32
2022-11-15T19:20:27.533Z,8.60
2022-11-15T19:22:30.187Z,9.90
2022-11-15T19:24:34.077Z,8.93
2022-11-15T19:26:37.881Z,8.30
2022-11-15T19:28:41.181Z,8.80
2022-11-15T19:30:43.908Z,10.55
2022-11-15T19:32:47.883Z,9.18
2022-11-15T19:34:50.538Z,7.93
2022-11-15T19:36:53.141Z,8.20
2022-11-15T19:38:56.480Z,9.13
2022-11-15T19:41:00.415Z,12.50
2022-11-15T19:43:03.095Z,7.07
2022-11-15T19:45:06.179Z,8.23
2022-11-15T19:47:09.318Z,8.90
2022-11-15T19:49:13.418Z,8.27
2022-11-15T19:51:19.636Z,10.93
2022-11-15T19:53:24.320Z,7.82
2022-11-15T19:55:29.310Z,8.70
2022-11-15T19:57:32.020Z,8.70
2022-11-15T19:59:34.667Z,8.57
2022-11-15T20:01:39.242Z,10.88
2022-11-15T20:03:42.173Z,8.23
2022-11-15T20:05:46.326Z,8.82
2022-11-15T20:07:49.116Z,12.38
2022-11-15T20:09:52.223Z,11.93
2022-11-15T20:11:54.923Z,8.95
2022-11-15T20:13:58.554Z,10.95
2022-11-15T20:16:01.274Z,9.13
2022-11-15T20:18:04.219Z,9.63
2022-11-15T20:20:08.171Z,9.45
2022-11-15T20:22:12.166Z,8.13
2022-11-15T20:24:14.830Z,9.90
2022-11-15T20:26:17.460Z,10.35
2022-11-15T20:28:23.861Z,10.07
2022-11-15T20:30:26.591Z,9.82
2022-11-15T20:32:29.230Z,9.88
2022-11-15T20:34:31.836Z,11.40
2022-11-15T20:36:34.515Z,11.02
2022-11-15T20:38:38.882Z,8.25
2022-11-15T20:40:41.785Z,8.30
2022-11-15T20:42:44.412Z,9.60
2022-11-15T20:44:47.072Z,7.93
2022-11-15T20:46:49.709Z,10.70
2022-11-15T20:48:52.446Z,10.80
2022-11-15T20:51:06.963Z,12.10
2022-11-15T20:53:09.984Z,11.25
2022-11-15T20:55:13.969Z,14.60
2022-11-15T20:57:16.636Z,11.07
2022-11-15T20:59:19.571Z,12.10
2022-11-15T21:01:23.728Z,13.60
2022-11-15T21:03:26.701Z,13.35
2022-11-15T21:05:29.944Z,11.85
2022-11-15T21:07:32.725Z,11.90
2022-11-15T21:09:52.951Z,12.32
2022-11-15T21:12:11.084Z,11.05
2022-11-15T21:14:13.772Z,10.23
2022-11-15T21:16:17.568Z,10.55
2022-11-15T21:18:20.165Z,12.10
2022-11-15T21:20:22.749Z,9.55
2022-11-15T21:22:25.431Z,9.25
2022-11-15T21:24:28.395Z,14.98
2022-11-15T21:26:31.197Z,11.13
2022-11-15T21:28:35.833Z,10.52
2022-11-15T21:30:38.670Z,12.63
2022-11-15T21:32:41.475Z,11.20
2022-11-15T21:34:44.524Z,12.43
2022-11-15T21:36:47.690Z,11.27
2022-11-15T21:38:50.548Z,10.43
2022-11-15T21:40:54.388Z,11.63
2022-11-15T21:42:57.014Z,10.95
2022-11-15T21:45:01.188Z,11.48
2022-11-15T21:47:04.183Z,9.32
2022-11-15T21:49:07.390Z,9.85
2022-11-15T21:51:13.746Z,9.80
2022-11-15T21:53:19.896Z,9.10
2022-11-15T21:55:22.724Z,10.40
2022-11-15T21:57:25.339Z,9.18
2022-11-15T21:59:27.978Z,10.68
2022-11-15T22:01:49.583Z,10.18
2022-11-15T22:03:52.742Z,9.73
2022-11-15T22:05:55.615Z,9.32
2022-11-15T22:07:58.263Z,9.23
2022-11-15T22:10:00.935Z,9.50
2022-11-15T22:12:03.527Z,8.90
2022-11-15T22:14:06.275Z,9.77
2022-11-15T22:16:09.985Z,8.80
2022-11-15T22:18:14.940Z,10.07
2022-11-15T22:20:42.926Z,10.27
2022-11-15T22:22:40.795Z,9.57
2022-11-15T22:24:43.518Z,9.85
2022-11-15T22:26:46.292Z,9.43
2022-11-15T22:28:49.067Z,9.27
2022-11-15T22:30:54.375Z,12.20
2022-11-15T22:32:57.100Z,10.38
2022-11-15T22:35:01.487Z,8.45
2022-11-15T22:37:20.057Z,11.05
2022-11-15T22:39:24.105Z,10.75
2022-11-15T22:41:26.965Z,11.27
2022-11-15T22:43:29.950Z,11.70
2022-11-15T22:45:33.090Z,9.43
2022-11-15T22:47:36.050Z,11.55
2022-11-15T22:49:38.859Z,11.93
2022-11-15T22:51:43.134Z,9.20
2022-11-15T22:53:45.933Z,10.35
2022-11-15T22:55:52.725Z,9.02
2022-11-15T22:57:55.475Z,11.23
2022-11-15T22:59:58.367Z,10.80
2022-11-15T23:02:01.175Z,10.48
2022-11-15T23:04:04.210Z,12.23
2022-11-15T23:06:08.408Z,10.88
2022-11-15T23:08:12.619Z,12.23
2022-11-15T23:10:33.516Z,13.38
2022-11-15T23:12:53.718Z,8.80
2022-11-15T23:14:56.572Z,9.25
2022-11-15T23:17:00.649Z,8.15
2022-11-15T23:19:06.344Z,6.72
2022-11-15T23:21:10.386Z,7.63
2022-11-15T23:23:13.872Z,9.73
2022-11-15T23:25:16.833Z,7.88
2022-11-15T23:27:20.823Z,7.80
2022-11-15T23:29:25.175Z,7.35
2022-11-15T23:31:45.817Z,7.53
2022-11-15T23:33:59.777Z,7.82
2022-11-15T23:36:02.539Z,8.40
2022-11-15T23:38:05.503Z,8.10
2022-11-15T23:40:11.849Z,8.63
2022-11-15T23:42:20.136Z,9.90
2022-11-15T23:44:23.450Z,9.35
2022-11-15T23:46:26.599Z,7.47
2022-11-15T23:48:29.801Z,7.78
2022-11-15T23:50:34.240Z,9.70
2022-11-15T23:52:37.094Z,7.93
2022-11-15T23:54:39.974Z,8.85
2022-11-15T23:56:44.120Z,7.90
2022-11-15T23:58:47.356Z,7.60
